createdAt,value
2019-04-30T00:00:06.155Z,0.00
2019-04-30T00:01:07.441Z,0.00
2019-04-30T00:02:05.829Z,0.00
2019-04-30T00:03:06.610Z,0.00
2019-04-30T00:04:05.736Z,0.00
2019-04-30T00:05:05.497Z,0.00
2019-04-30T00:06:07.235Z,0.00
2019-04-30T00:07:05.675Z,0.00
2019-04-30T00:08:05.841Z,0.00
2019-04-30T00:09:05.363Z,0.00
2019-04-30T00:10:06.131Z,0.00
2019-04-30T00:11:05.383Z,0.00
2019-04-30T00:12:05.619Z,0.00
2019-04-30T00:13:06.109Z,0.00
2019-04-30T00:14:05.648Z,0.00
2019-04-30T00:15:06.202Z,0.00
2019-04-30T00:16:05.319Z,0.00
2019-04-30T00:17:06.350Z,0.00
2019-04-30T00:18:05.505Z,0.00
2019-04-30T00:19:06.187Z,0.00
2019-04-30T00:20:05.298Z,0.00
2019-04-30T00:21:05.517Z,0.00
2019-04-30T00:22:05.730Z,0.00
2019-04-30T00:23:05.194Z,0.00
2019-04-30T00:24:06.221Z,0.00
2019-04-30T00:25:05.562Z,0.00
2019-04-30T00:26:09.983Z,0.00
2019-04-30T00:27:05.530Z,0.00
2019-04-30T00:28:08.479Z,0.00
2019-04-30T00:29:05.109Z,0.00
2019-04-30T00:30:07.696Z,0.00
2019-04-30T00:31:05.504Z,0.00
2019-04-30T00:32:07.785Z,0.00
2019-04-30T00:33:05.814Z,0.00
2019-04-30T00:34:05.077Z,0.00
2019-04-30T00:35:04.465Z,0.00
2019-04-30T00:36:04.981Z,0.00
2019-04-30T00:37:07.260Z,0.00
2019-04-30T00:38:05.418Z,0.00
2019-04-30T00:39:07.118Z,0.00
2019-04-30T00:40:05.621Z,0.00
2019-04-30T00:41:06.839Z,0.00
2019-04-30T00:42:05.380Z,0.00
2019-04-30T00:43:07.942Z,0.00
2019-04-30T00:44:05.376Z,0.00
2019-04-30T00:45:09.495Z,0.00
2019-04-30T00:46:05.333Z,0.00
2019-04-30T00:47:07.879Z,0.00
2019-04-30T00:48:06.004Z,0.00
2019-04-30T00:49:09.801Z,0.00
2019-04-30T00:50:05.338Z,0.00
2019-04-30T00:51:08.923Z,0.00
2019-04-30T00:52:05.286Z,0.00
2019-04-30T00:53:05.957Z,0.00
2019-04-30T00:54:05.709Z,0.00
2019-04-30T00:55:05.556Z,0.00
2019-04-30T00:56:05.687Z,0.00
2019-04-30T00:57:07.507Z,0.00
2019-04-30T00:58:05.911Z,0.00
2019-04-30T00:59:07.096Z,0.00
2019-04-30T01:00:05.215Z,0.00
2019-04-30T01:01:08.007Z,0.00
2019-04-30T01:02:05.958Z,0.00
2019-04-30T01:03:05.918Z,0.00
2019-04-30T01:04:05.039Z,0.00
2019-04-30T01:05:06.041Z,0.00
2019-04-30T01:06:05.398Z,0.00
2019-04-30T01:07:05.213Z,0.00
2019-04-30T01:08:04.984Z,0.00
2019-04-30T01:09:05.561Z,0.00
2019-04-30T01:10:05.108Z,0.00
2019-04-30T01:11:09.428Z,0.00
2019-04-30T01:12:05.514Z,0.00
2019-04-30T01:13:08.008Z,0.00
2019-04-30T01:14:05.043Z,0.00
2019-04-30T01:15:06.417Z,0.00
2019-04-30T01:16:05.015Z,0.00
2019-04-30T01:17:08.136Z,0.00
2019-04-30T01:18:04.995Z,0.00
2019-04-30T01:19:05.729Z,0.00
2019-04-30T01:20:04.985Z,0.00
2019-04-30T01:21:07.851Z,0.00
2019-04-30T01:22:04.944Z,0.00
2019-04-30T01:23:08.016Z,0.00
2019-04-30T01:24:04.924Z,0.00
2019-04-30T01:25:08.918Z,0.00
2019-04-30T01:26:04.937Z,0.00
2019-04-30T01:27:06.713Z,0.00
2019-04-30T01:28:04.879Z,0.00
2019-04-30T01:29:03.870Z,0.00
2019-04-30T01:30:03.854Z,0.00
2019-04-30T01:31:03.873Z,0.00
2019-04-30T01:32:03.834Z,0.00
2019-04-30T01:33:03.824Z,0.00
2019-04-30T01:34:05.146Z,0.00
2019-04-30T01:35:04.808Z,0.00
2019-04-30T01:36:04.064Z,0.00
2019-04-30T01:37:03.784Z,0.00
2019-04-30T01:38:04.080Z,0.00
2019-04-30T01:39:03.759Z,0.00
2019-04-30T01:40:10.524Z,0.00
2019-04-30T01:41:04.763Z,0.00
2019-04-30T01:42:07.899Z,0.00
2019-04-30T01:43:04.717Z,0.00
2019-04-30T01:44:03.910Z,0.00
2019-04-30T01:45:03.705Z,0.00
2019-04-30T01:46:12.187Z,0.00
2019-04-30T01:47:04.679Z,0.00
2019-04-30T01:48:08.618Z,0.00
2019-04-30T01:49:04.661Z,0.00
2019-04-30T01:50:04.975Z,0.00
2019-04-30T01:51:03.639Z,0.00
2019-04-30T01:52:03.645Z,0.00
2019-04-30T01:53:04.835Z,0.00
2019-04-30T01:54:03.610Z,0.00
2019-04-30T01:55:03.595Z,0.00
2019-04-30T01:56:03.583Z,0.00
2019-04-30T01:57:03.593Z,0.00
2019-04-30T01:58:03.567Z,0.00
2019-04-30T01:59:03.547Z,0.00
2019-04-30T02:00:03.549Z,0.00
2019-04-30T02:01:03.527Z,0.00
2019-04-30T02:02:03.538Z,0.00
2019-04-30T02:03:03.502Z,0.00
2019-04-30T02:04:03.494Z,0.00
2019-04-30T02:05:03.504Z,0.00
2019-04-30T02:06:03.478Z,0.00
2019-04-30T02:07:03.489Z,0.00
2019-04-30T02:08:03.450Z,0.00
2019-04-30T02:09:03.439Z,0.00
2019-04-30T02:10:03.423Z,0.00
2019-04-30T02:11:03.424Z,0.00
2019-04-30T02:12:03.427Z,0.00
2019-04-30T02:13:03.403Z,0.00
2019-04-30T02:14:03.392Z,0.00
2019-04-30T02:15:03.405Z,0.00
2019-04-30T02:16:03.360Z,0.00
2019-04-30T02:17:03.370Z,0.00
2019-04-30T02:18:03.352Z,0.00
2019-04-30T02:19:03.337Z,0.00
2019-04-30T02:20:03.316Z,0.00
2019-04-30T02:21:03.320Z,0.00
2019-04-30T02:22:03.323Z,0.00
2019-04-30T02:23:03.299Z,0.00
2019-04-30T02:24:03.289Z,0.00
2019-04-30T02:25:03.263Z,0.00
2019-04-30T02:26:03.249Z,0.00
2019-04-30T02:27:03.249Z,0.00
2019-04-30T02:28:03.254Z,0.00
2019-04-30T02:29:03.228Z,0.00
2019-04-30T02:30:03.250Z,0.00
2019-04-30T02:31:03.199Z,0.00
2019-04-30T02:32:03.205Z,0.00
2019-04-30T02:33:03.211Z,0.00
2019-04-30T02:34:03.817Z,0.00
2019-04-30T02:35:03.359Z,0.00
2019-04-30T02:36:03.820Z,0.00
2019-04-30T02:37:03.147Z,0.00
2019-04-30T02:38:03.177Z,0.00
2019-04-30T02:39:03.123Z,0.00
2019-04-30T02:40:03.115Z,0.00
2019-04-30T02:41:03.133Z,0.00
2019-04-30T02:42:03.090Z,0.00
2019-04-30T02:43:03.128Z,0.00
2019-04-30T02:44:03.075Z,0.00
2019-04-30T02:45:03.701Z,0.00
2019-04-30T02:46:03.052Z,0.00
2019-04-30T02:47:03.044Z,0.00
2019-04-30T02:48:03.029Z,0.00
2019-04-30T02:49:03.051Z,0.00
2019-04-30T02:50:14.094Z,0.00
2019-04-30T02:51:03.994Z,0.00
2019-04-30T02:52:03.009Z,0.00
2019-04-30T02:53:02.979Z,0.00
2019-04-30T02:54:02.989Z,0.00
2019-04-30T02:55:02.990Z,0.00
2019-04-30T02:56:02.941Z,0.00
2019-04-30T02:57:02.929Z,0.00
2019-04-30T02:58:02.924Z,0.00
2019-04-30T02:59:03.871Z,0.00
2019-04-30T03:00:02.931Z,0.00
2019-04-30T03:01:02.904Z,0.00
2019-04-30T03:02:02.878Z,0.00
2019-04-30T03:03:02.857Z,0.00
2019-04-30T03:04:02.876Z,0.00
2019-04-30T03:05:02.840Z,0.00
2019-04-30T03:06:02.824Z,0.00
2019-04-30T03:07:02.815Z,0.00
2019-04-30T03:08:02.811Z,0.00
2019-04-30T03:09:02.828Z,0.00
2019-04-30T03:10:02.801Z,0.00
2019-04-30T03:11:02.773Z,0.00
2019-04-30T03:12:02.768Z,0.00
2019-04-30T03:13:02.749Z,0.00
2019-04-30T03:14:02.764Z,0.00
2019-04-30T03:15:02.791Z,0.00
2019-04-30T03:16:02.720Z,0.00
2019-04-30T03:17:02.702Z,0.00
2019-04-30T03:18:02.695Z,0.00
2019-04-30T03:19:02.704Z,0.00
2019-04-30T03:20:03.570Z,0.00
2019-04-30T03:21:02.669Z,0.00
2019-04-30T03:22:02.673Z,0.00
2019-04-30T03:23:02.652Z,0.00
2019-04-30T03:24:02.664Z,0.00
2019-04-30T03:25:02.622Z,0.00
2019-04-30T03:26:02.603Z,0.00
2019-04-30T03:27:02.595Z,0.00
2019-04-30T03:28:02.584Z,0.00
2019-04-30T03:29:02.581Z,0.00
2019-04-30T03:30:02.682Z,0.00
2019-04-30T03:31:04.503Z,0.00
2019-04-30T03:32:03.657Z,0.00
2019-04-30T03:33:03.171Z,0.00
2019-04-30T03:34:02.566Z,0.00
2019-04-30T03:35:03.393Z,0.00
2019-04-30T03:36:02.836Z,0.00
2019-04-30T03:37:02.492Z,0.00
2019-04-30T03:38:02.476Z,0.00
2019-04-30T03:39:02.494Z,0.00
2019-04-30T03:40:02.494Z,0.00
2019-04-30T03:41:02.450Z,0.00
2019-04-30T03:42:02.436Z,0.00
2019-04-30T03:43:03.098Z,0.00
2019-04-30T03:44:17.119Z,0.00
2019-04-30T03:45:03.431Z,0.00
2019-04-30T03:46:02.686Z,0.00
2019-04-30T03:47:02.382Z,0.00
2019-04-30T03:48:02.370Z,0.00
2019-04-30T03:49:02.355Z,0.00
2019-04-30T03:50:02.395Z,0.00
2019-04-30T03:51:02.356Z,0.00
2019-04-30T03:52:02.332Z,0.00
2019-04-30T03:53:02.312Z,0.00
2019-04-30T03:54:02.304Z,0.00
2019-04-30T03:55:02.953Z,0.00
2019-04-30T03:56:02.323Z,0.00
2019-04-30T03:57:02.299Z,0.00
2019-04-30T03:58:02.266Z,0.00
2019-04-30T03:59:02.295Z,0.00
2019-04-30T04:00:02.272Z,0.00
2019-04-30T04:01:02.235Z,0.00
2019-04-30T04:02:02.225Z,0.00
2019-04-30T04:03:02.208Z,0.00
2019-04-30T04:04:02.230Z,0.00
2019-04-30T04:05:03.106Z,0.00
2019-04-30T04:06:02.172Z,0.00
2019-04-30T04:07:02.170Z,0.00
2019-04-30T04:08:02.165Z,0.00
2019-04-30T04:09:02.138Z,0.00
2019-04-30T04:10:02.154Z,0.00
2019-04-30T04:11:03.103Z,0.00
2019-04-30T04:12:02.106Z,0.00
2019-04-30T04:13:02.110Z,0.00
2019-04-30T04:14:02.101Z,0.00
2019-04-30T04:15:03.936Z,0.00
2019-04-30T04:16:02.098Z,0.00
2019-04-30T04:17:02.064Z,0.00
2019-04-30T04:18:02.085Z,0.00
2019-04-30T04:19:02.737Z,0.00
2019-04-30T04:20:02.034Z,0.00
2019-04-30T04:21:11.321Z,0.00
2019-04-30T04:22:04.216Z,0.00
2019-04-30T04:23:01.997Z,0.00
2019-04-30T04:24:01.987Z,0.00
2019-04-30T04:25:01.973Z,0.00
2019-04-30T04:26:01.959Z,0.00
2019-04-30T04:27:01.991Z,0.00
2019-04-30T04:28:01.941Z,0.00
2019-04-30T04:29:01.928Z,0.00
2019-04-30T04:30:01.944Z,0.00
2019-04-30T04:31:01.913Z,0.00
2019-04-30T04:32:01.921Z,0.00
2019-04-30T04:33:01.886Z,0.00
2019-04-30T04:34:01.887Z,0.00
2019-04-30T04:35:01.873Z,0.00
2019-04-30T04:36:01.881Z,0.00
2019-04-30T04:37:01.874Z,0.00
2019-04-30T04:38:01.835Z,0.00
2019-04-30T04:39:01.816Z,0.00
2019-04-30T04:40:01.818Z,0.00
2019-04-30T04:41:03.091Z,0.00
2019-04-30T04:42:01.866Z,0.00
2019-04-30T04:43:01.777Z,0.00
2019-04-30T04:44:01.762Z,0.00
2019-04-30T04:45:01.768Z,0.00
2019-04-30T04:46:01.747Z,0.00
2019-04-30T04:47:01.773Z,0.00
2019-04-30T04:48:01.731Z,0.00
2019-04-30T04:49:01.718Z,0.00
2019-04-30T04:50:01.711Z,0.00
2019-04-30T04:51:01.686Z,0.00
2019-04-30T04:52:01.717Z,0.00
2019-04-30T04:53:01.678Z,0.00
2019-04-30T04:54:03.314Z,0.00
2019-04-30T04:55:01.675Z,0.00
2019-04-30T04:56:01.635Z,0.00
2019-04-30T04:57:13.213Z,0.00
2019-04-30T04:58:02.617Z,0.00
2019-04-30T04:59:01.608Z,0.00
2019-04-30T05:00:07.138Z,0.00
2019-04-30T05:01:02.592Z,0.00
2019-04-30T05:02:01.603Z,0.00
2019-04-30T05:03:01.567Z,0.00
2019-04-30T05:04:01.554Z,0.00
2019-04-30T05:05:01.551Z,0.00
2019-04-30T05:06:02.633Z,0.00
2019-04-30T05:07:01.550Z,0.00
2019-04-30T05:08:01.529Z,0.00
2019-04-30T05:09:01.670Z,0.00
2019-04-30T05:10:01.492Z,0.00
2019-04-30T05:11:01.505Z,0.00
2019-04-30T05:12:01.501Z,0.00
2019-04-30T05:13:01.495Z,0.00
2019-04-30T05:14:01.451Z,0.00
2019-04-30T05:15:01.430Z,0.00
2019-04-30T05:16:01.423Z,0.00
2019-04-30T05:17:01.406Z,0.00
2019-04-30T05:18:01.419Z,0.00
2019-04-30T05:19:01.396Z,0.00
2019-04-30T05:20:01.379Z,0.00
2019-04-30T05:21:01.363Z,0.00
2019-04-30T05:22:01.350Z,0.00
2019-04-30T05:23:01.379Z,0.00
2019-04-30T05:24:01.335Z,0.00
2019-04-30T05:25:01.333Z,0.00
2019-04-30T05:26:01.311Z,0.00
2019-04-30T05:27:01.308Z,0.00
2019-04-30T05:28:01.314Z,0.00
2019-04-30T05:29:01.281Z,0.00
2019-04-30T05:30:01.263Z,0.00
2019-04-30T05:31:01.264Z,0.00
2019-04-30T05:32:01.245Z,0.00
2019-04-30T05:33:01.263Z,0.00
2019-04-30T05:34:01.223Z,0.00
2019-04-30T05:35:01.223Z,0.00
2019-04-30T05:36:01.199Z,0.00
2019-04-30T05:37:01.191Z,0.00
2019-04-30T05:38:01.202Z,0.00
2019-04-30T05:39:01.193Z,0.00
2019-04-30T05:40:01.160Z,0.00
2019-04-30T05:41:01.148Z,0.00
2019-04-30T05:42:01.138Z,0.00
2019-04-30T05:43:01.154Z,0.00
2019-04-30T05:44:01.130Z,0.00
2019-04-30T05:45:01.101Z,0.00
2019-04-30T05:46:01.098Z,0.00
2019-04-30T05:47:01.077Z,0.00
2019-04-30T05:48:01.080Z,0.00
2019-04-30T05:49:01.097Z,0.00
2019-04-30T05:50:01.052Z,0.00
2019-04-30T05:51:01.040Z,0.00
2019-04-30T05:52:01.041Z,0.00
2019-04-30T05:53:01.120Z,0.00
2019-04-30T05:54:01.028Z,0.00
2019-04-30T05:55:01.003Z,0.00
2019-04-30T05:56:03.110Z,0.00
2019-04-30T05:57:00.989Z,0.00
2019-04-30T05:58:01.497Z,0.00
2019-04-30T05:59:01.016Z,0.00
2019-04-30T06:00:00.957Z,5.62
2019-04-30T06:01:00.947Z,5.62
2019-04-30T06:02:00.924Z,5.62
2019-04-30T06:03:00.920Z,5.62
2019-04-30T06:04:00.929Z,0.00
2019-04-30T06:05:00.883Z,0.00
2019-04-30T06:06:00.961Z,0.00
2019-04-30T06:07:00.879Z,0.00
2019-04-30T06:08:00.953Z,0.00
2019-04-30T06:09:06.768Z,0.00
2019-04-30T06:10:01.839Z,0.00
2019-04-30T06:11:00.825Z,0.00
2019-04-30T06:12:00.845Z,0.00
2019-04-30T06:13:00.799Z,0.00
2019-04-30T06:14:00.812Z,0.00
2019-04-30T06:15:00.811Z,0.00
2019-04-30T06:16:00.771Z,0.00
2019-04-30T06:17:00.764Z,0.00
2019-04-30T06:18:10.576Z,0.00
2019-04-30T06:19:01.768Z,5.62
2019-04-30T06:20:00.741Z,5.62
2019-04-30T06:21:00.717Z,0.00
2019-04-30T06:22:07.776Z,0.00
2019-04-30T06:23:01.698Z,0.00
2019-04-30T06:24:00.686Z,0.00
2019-04-30T06:25:00.704Z,0.00
2019-04-30T06:26:09.333Z,0.00
2019-04-30T06:27:01.645Z,5.62
2019-04-30T06:28:00.656Z,0.00
2019-04-30T06:29:01.463Z,0.00
2019-04-30T06:30:00.660Z,0.00
2019-04-30T06:31:00.625Z,0.00
2019-04-30T06:32:00.593Z,0.00
2019-04-30T06:33:00.579Z,0.00
2019-04-30T06:34:00.585Z,0.00
2019-04-30T06:35:00.588Z,0.00
2019-04-30T06:36:00.563Z,0.00
2019-04-30T06:37:00.555Z,0.00
2019-04-30T06:38:00.535Z,0.00
2019-04-30T06:39:00.522Z,0.00
2019-04-30T06:40:00.546Z,0.00
2019-04-30T06:41:00.506Z,0.00
2019-04-30T06:42:06.837Z,0.00
2019-04-30T06:43:01.478Z,0.00
2019-04-30T06:44:00.456Z,0.00
2019-04-30T06:45:00.541Z,0.00
2019-04-30T06:46:01.010Z,0.00
2019-04-30T06:47:01.256Z,0.00
2019-04-30T06:48:00.430Z,0.00
2019-04-30T06:49:00.400Z,0.00
2019-04-30T06:50:01.340Z,0.00
2019-04-30T06:51:01.683Z,0.00
2019-04-30T06:52:00.370Z,0.00
2019-04-30T06:53:01.588Z,0.00
2019-04-30T06:54:00.372Z,0.00
2019-04-30T06:55:00.562Z,0.00
2019-04-30T06:56:00.338Z,0.00
2019-04-30T06:57:00.337Z,0.00
2019-04-30T06:58:12.069Z,0.00
2019-04-30T06:59:01.286Z,0.00
2019-04-30T07:00:00.306Z,0.00
2019-04-30T07:01:00.300Z,0.00
2019-04-30T07:02:00.258Z,0.00
2019-04-30T07:03:00.249Z,0.00
2019-04-30T07:04:01.057Z,0.00
2019-04-30T07:05:00.230Z,0.00
2019-04-30T07:06:00.955Z,0.00
2019-04-30T07:07:00.216Z,0.00
2019-04-30T07:08:05.662Z,0.00
2019-04-30T07:09:01.190Z,0.00
2019-04-30T07:10:01.207Z,0.00
2019-04-30T07:11:07.412Z,0.00
2019-04-30T07:12:01.181Z,0.00
2019-04-30T07:13:00.144Z,0.00
2019-04-30T07:14:00.199Z,0.00
2019-04-30T07:15:00.127Z,0.00
2019-04-30T07:16:00.143Z,0.00
2019-04-30T07:17:00.158Z,0.00
2019-04-30T07:18:00.090Z,0.00
2019-04-30T07:19:00.074Z,0.00
2019-04-30T07:20:00.080Z,0.00
2019-04-30T07:21:00.069Z,5.62
2019-04-30T07:22:00.067Z,5.62
2019-04-30T07:24:01.037Z,0.00
2019-04-30T07:25:00.013Z,0.00
2019-04-30T07:26:00.052Z,0.00
2019-04-30T07:27:02.753Z,0.00
2019-04-30T07:27:59.988Z,0.00
2019-04-30T07:29:02.508Z,0.00
2019-04-30T07:29:59.957Z,0.00
2019-04-30T07:31:10.259Z,0.00
2019-04-30T07:32:00.956Z,0.00
2019-04-30T07:32:59.922Z,0.00
2019-04-30T07:33:59.917Z,0.00
2019-04-30T07:34:59.916Z,0.00
2019-04-30T07:36:01.739Z,0.00
2019-04-30T07:37:11.845Z,0.00
2019-04-30T07:38:04.847Z,0.00
2019-04-30T07:39:00.058Z,0.00
2019-04-30T07:39:59.840Z,0.00
2019-04-30T07:40:59.827Z,0.00
2019-04-30T07:42:00.017Z,0.00
2019-04-30T07:42:59.817Z,0.00
2019-04-30T07:43:59.796Z,0.00
2019-04-30T07:45:00.755Z,0.00
2019-04-30T07:45:59.883Z,0.00
2019-04-30T07:47:02.003Z,0.00
2019-04-30T07:47:59.754Z,0.00
2019-04-30T07:49:00.084Z,0.00
2019-04-30T07:50:00.797Z,0.00
2019-04-30T07:50:59.734Z,0.00
2019-04-30T07:52:01.458Z,0.00
2019-04-30T07:53:05.844Z,0.00
2019-04-30T07:54:00.690Z,0.00
2019-04-30T07:55:00.707Z,0.00
2019-04-30T07:55:59.665Z,0.00
2019-04-30T07:57:00.497Z,0.00
2019-04-30T07:57:59.645Z,0.00
2019-04-30T07:59:00.758Z,0.00
2019-04-30T08:00:00.565Z,0.00
2019-04-30T08:00:59.662Z,0.00
2019-04-30T08:02:07.377Z,0.00
2019-04-30T08:03:00.598Z,0.00
2019-04-30T08:03:59.579Z,0.00
2019-04-30T08:04:59.952Z,0.00
2019-04-30T08:06:00.027Z,0.00
2019-04-30T08:06:59.917Z,0.00
2019-04-30T08:08:16.705Z,0.00
2019-04-30T08:09:01.217Z,0.00
2019-04-30T08:09:34.154Z,5.62
2019-04-30T08:09:59.525Z,0.00
2019-04-30T08:10:59.500Z,0.00
2019-04-30T08:11:59.551Z,0.00
2019-04-30T08:13:08.511Z,5.62
2019-04-30T08:14:00.790Z,5.62
2019-04-30T08:14:59.605Z,5.62
2019-04-30T08:15:59.728Z,5.62
2019-04-30T08:16:59.443Z,5.62
2019-04-30T08:18:03.517Z,5.62
2019-04-30T08:19:00.422Z,5.62
2019-04-30T08:19:59.397Z,5.62
2019-04-30T08:21:00.971Z,5.62
2019-04-30T08:21:59.378Z,5.62
2019-04-30T08:23:13.005Z,5.62
2019-04-30T08:24:01.099Z,5.62
2019-04-30T08:24:59.347Z,5.62
2019-04-30T08:25:59.342Z,5.62
2019-04-30T08:27:01.156Z,5.62
2019-04-30T08:27:59.340Z,5.62
2019-04-30T08:28:59.871Z,5.62
2019-04-30T08:29:59.330Z,5.62
2019-04-30T08:30:59.277Z,5.62
2019-04-30T08:31:59.462Z,5.62
2019-04-30T08:32:59.681Z,5.62
2019-04-30T08:33:59.317Z,5.62
2019-04-30T08:35:01.137Z,5.62
2019-04-30T08:36:01.001Z,5.62
2019-04-30T08:36:59.511Z,5.62
2019-04-30T08:37:59.225Z,5.62
2019-04-30T08:38:59.704Z,5.62
2019-04-30T08:40:00.215Z,5.62
2019-04-30T08:41:00.843Z,5.62
2019-04-30T08:42:00.018Z,11.25
2019-04-30T08:42:59.564Z,11.25
2019-04-30T08:43:59.833Z,11.25
2019-04-30T08:44:59.137Z,11.25
2019-04-30T08:45:59.545Z,11.25
2019-04-30T08:46:59.177Z,11.25
2019-04-30T08:47:59.151Z,11.25
2019-04-30T08:48:59.107Z,11.25
2019-04-30T08:50:02.365Z,5.62
2019-04-30T08:50:59.594Z,5.62
2019-04-30T08:51:59.052Z,5.62
2019-04-30T08:53:00.039Z,5.62
2019-04-30T08:53:59.038Z,5.62
2019-04-30T08:55:12.999Z,5.62
2019-04-30T08:56:00.007Z,5.62
2019-04-30T08:56:59.530Z,5.62
2019-04-30T08:58:09.369Z,5.62
2019-04-30T08:59:00.010Z,5.62
2019-04-30T08:59:58.954Z,5.62
2019-04-30T09:00:58.945Z,5.62
2019-04-30T09:02:12.541Z,5.62
2019-04-30T09:02:59.961Z,5.62
2019-04-30T09:03:59.713Z,5.62
2019-04-30T09:05:00.523Z,5.62
2019-04-30T09:05:59.039Z,5.62
2019-04-30T09:06:59.959Z,5.62
2019-04-30T09:07:59.816Z,5.62
2019-04-30T09:08:59.321Z,5.62
2019-04-30T09:10:01.219Z,11.25
2019-04-30T09:10:59.575Z,11.25
2019-04-30T09:11:59.305Z,5.62
2019-04-30T09:12:59.771Z,11.25
2019-04-30T09:13:58.830Z,11.25
2019-04-30T09:14:59.174Z,5.62
2019-04-30T09:15:59.378Z,11.25
2019-04-30T09:16:59.612Z,11.25
2019-04-30T09:18:03.840Z,11.25
2019-04-30T09:18:59.773Z,11.25
2019-04-30T09:19:59.026Z,5.62
2019-04-30T09:21:05.952Z,11.25
2019-04-30T09:21:59.717Z,11.25
2019-04-30T09:22:59.554Z,11.25
2019-04-30T09:23:59.438Z,11.25
2019-04-30T09:24:59.237Z,11.25
2019-04-30T09:25:58.702Z,11.25
2019-04-30T09:26:59.143Z,11.25
2019-04-30T09:27:58.936Z,11.25
2019-04-30T09:28:59.294Z,11.25
2019-04-30T09:29:58.851Z,5.62
2019-04-30T09:30:58.807Z,5.62
2019-04-30T09:31:59.401Z,5.62
2019-04-30T09:32:59.491Z,5.62
2019-04-30T09:34:00.827Z,5.62
2019-04-30T09:34:58.810Z,5.62
2019-04-30T09:35:59.524Z,5.62
2019-04-30T09:36:59.021Z,5.62
2019-04-30T09:38:01.423Z,5.62
2019-04-30T09:39:01.338Z,5.62
2019-04-30T09:39:59.200Z,5.62
2019-04-30T09:40:59.401Z,5.62
2019-04-30T09:41:59.563Z,5.62
2019-04-30T09:42:58.805Z,5.62
2019-04-30T09:43:59.749Z,5.62
2019-04-30T09:44:59.618Z,5.62
2019-04-30T09:45:59.300Z,5.62
2019-04-30T09:46:58.904Z,5.62
2019-04-30T09:47:59.272Z,5.62
2019-04-30T09:48:59.769Z,5.62
2019-04-30T09:49:59.589Z,5.62
2019-04-30T09:51:00.473Z,5.62
2019-04-30T09:51:59.367Z,5.62
2019-04-30T09:53:00.316Z,5.62
2019-04-30T09:54:00.533Z,5.62
2019-04-30T09:54:59.445Z,5.62
2019-04-30T09:55:59.603Z,5.62
2019-04-30T09:56:59.015Z,5.62
2019-04-30T09:57:58.859Z,11.25
2019-04-30T09:58:59.255Z,5.62
2019-04-30T09:59:58.329Z,5.62
2019-04-30T10:00:59.367Z,5.62
2019-04-30T10:01:58.284Z,11.25
2019-04-30T10:02:59.942Z,11.25
2019-04-30T10:04:00.282Z,11.25
2019-04-30T10:04:58.676Z,11.25
2019-04-30T10:05:59.089Z,11.25
2019-04-30T10:06:59.588Z,11.25
2019-04-30T10:07:59.407Z,11.25
2019-04-30T10:08:59.676Z,11.25
2019-04-30T10:09:59.099Z,11.25
2019-04-30T10:10:58.801Z,11.25
2019-04-30T10:11:59.587Z,11.25
2019-04-30T10:12:59.285Z,11.25
2019-04-30T10:13:58.146Z,11.25
2019-04-30T10:14:59.263Z,11.25
2019-04-30T10:15:58.556Z,11.25
2019-04-30T10:16:59.519Z,11.25
2019-04-30T10:17:58.093Z,16.88
2019-04-30T10:18:59.245Z,16.88
2019-04-30T10:19:58.082Z,16.88
2019-04-30T10:20:58.887Z,16.88
2019-04-30T10:21:58.963Z,16.88
2019-04-30T10:22:59.619Z,16.88
2019-04-30T10:24:10.438Z,16.88
2019-04-30T10:24:59.671Z,11.25
2019-04-30T10:25:58.051Z,11.25
2019-04-30T10:26:58.006Z,11.25
2019-04-30T10:27:59.786Z,16.88
2019-04-30T10:28:57.992Z,16.88
2019-04-30T10:29:59.384Z,16.88
2019-04-30T10:30:57.966Z,22.50
2019-04-30T10:31:58.766Z,16.88
2019-04-30T10:33:28.563Z,56.25
2019-04-30T10:34:26.378Z,61.88
2019-04-30T10:35:28.460Z,61.88
2019-04-30T10:36:26.370Z,61.88
2019-04-30T10:37:26.329Z,67.50
2019-04-30T10:38:26.333Z,67.50
2019-04-30T10:39:26.297Z,67.50
2019-04-30T10:40:26.306Z,67.50
2019-04-30T10:41:26.302Z,73.12
2019-04-30T10:42:26.252Z,78.75
2019-04-30T10:43:26.230Z,67.50
2019-04-30T10:44:26.209Z,56.25
2019-04-30T10:45:26.177Z,50.62
2019-04-30T10:46:26.185Z,56.25
2019-04-30T10:47:26.175Z,56.25
2019-04-30T10:48:26.124Z,50.62
2019-04-30T10:49:26.163Z,45.00
2019-04-30T10:50:26.101Z,45.00
2019-04-30T10:51:26.072Z,33.75
2019-04-30T10:52:26.071Z,28.12
2019-04-30T10:53:26.042Z,28.12
2019-04-30T10:54:26.542Z,28.12
2019-04-30T10:55:26.002Z,22.50
2019-04-30T10:56:26.749Z,5.62
2019-04-30T10:57:28.393Z,5.62
2019-04-30T10:58:26.696Z,5.62
2019-04-30T10:59:26.675Z,5.62
2019-04-30T11:00:28.296Z,5.62
2019-04-30T11:01:26.651Z,11.25
2019-04-30T11:02:28.737Z,11.25
2019-04-30T11:03:26.622Z,11.25
2019-04-30T11:04:26.611Z,11.25
2019-04-30T11:05:26.602Z,16.88
2019-04-30T11:06:26.586Z,28.12
2019-04-30T11:07:28.692Z,28.12
2019-04-30T11:08:26.569Z,28.12
2019-04-30T11:09:26.553Z,28.12
2019-04-30T11:10:26.545Z,28.12
2019-04-30T11:11:28.294Z,28.12
2019-04-30T11:12:26.542Z,22.50
2019-04-30T11:13:26.532Z,28.12
2019-04-30T11:14:26.510Z,33.75
2019-04-30T11:15:26.523Z,28.12
2019-04-30T11:16:26.488Z,22.50
2019-04-30T11:17:26.733Z,16.88
2019-04-30T11:18:26.633Z,28.12
2019-04-30T11:19:26.627Z,22.50
2019-04-30T11:20:26.683Z,16.88
2019-04-30T11:21:26.617Z,11.25
2019-04-30T11:22:26.617Z,11.25
2019-04-30T11:23:26.530Z,11.25
2019-04-30T11:24:35.905Z,11.25
2019-04-30T11:25:28.693Z,16.88
2019-04-30T11:26:26.685Z,22.50
2019-04-30T11:27:26.900Z,22.50
2019-04-30T11:28:27.087Z,28.12
2019-04-30T11:29:26.580Z,22.50
2019-04-30T11:30:26.669Z,16.88
2019-04-30T11:31:26.552Z,11.25
2019-04-30T11:32:26.451Z,16.88
2019-04-30T11:33:26.487Z,16.88
2019-04-30T11:34:28.156Z,28.12
2019-04-30T11:35:26.288Z,22.50
2019-04-30T11:36:26.302Z,16.88
2019-04-30T11:37:26.330Z,16.88
2019-04-30T11:38:26.263Z,16.88
2019-04-30T11:39:26.245Z,16.88
2019-04-30T11:40:34.281Z,16.88
2019-04-30T11:41:30.880Z,16.88
2019-04-30T11:42:27.235Z,16.88
2019-04-30T11:43:26.199Z,16.88
2019-04-30T11:44:30.893Z,22.50
2019-04-30T11:45:27.192Z,22.50
2019-04-30T11:46:26.175Z,28.12
2019-04-30T11:47:26.166Z,22.50
2019-04-30T11:48:26.180Z,22.50
2019-04-30T11:49:26.143Z,16.88
2019-04-30T11:50:26.132Z,11.25
2019-04-30T11:51:27.079Z,11.25
2019-04-30T11:52:26.120Z,16.88
2019-04-30T11:53:28.797Z,22.50
2019-04-30T11:54:26.103Z,22.50
2019-04-30T11:55:26.082Z,16.88
2019-04-30T11:56:26.065Z,22.50
2019-04-30T11:57:26.047Z,22.50
2019-04-30T11:58:26.081Z,28.12
2019-04-30T11:59:26.091Z,28.12
2019-04-30T12:00:26.019Z,28.12
2019-04-30T12:01:26.152Z,22.50
2019-04-30T12:02:26.002Z,16.88
2019-04-30T12:03:25.989Z,16.88
2019-04-30T12:04:26.010Z,16.88
2019-04-30T12:05:25.985Z,22.50
2019-04-30T12:06:25.973Z,22.50
2019-04-30T12:07:25.951Z,22.50
2019-04-30T12:08:26.595Z,22.50
2019-04-30T12:09:25.965Z,16.88
2019-04-30T12:10:25.935Z,11.25
2019-04-30T12:11:25.924Z,11.25
2019-04-30T12:12:25.909Z,16.88
2019-04-30T12:13:25.892Z,16.88
2019-04-30T12:14:25.876Z,16.88
2019-04-30T12:15:25.898Z,11.25
2019-04-30T12:16:25.862Z,11.25
2019-04-30T12:17:25.851Z,11.25
2019-04-30T12:18:25.850Z,11.25
2019-04-30T12:19:25.842Z,11.25
2019-04-30T12:20:25.833Z,11.25
2019-04-30T12:21:25.809Z,11.25
2019-04-30T12:22:25.815Z,16.88
2019-04-30T12:23:25.782Z,22.50
2019-04-30T12:24:25.806Z,22.50
2019-04-30T12:25:25.803Z,22.50
2019-04-30T12:26:25.766Z,33.75
2019-04-30T12:27:25.741Z,33.75
2019-04-30T12:28:27.289Z,28.12
2019-04-30T12:29:25.721Z,22.50
2019-04-30T12:30:25.729Z,28.12
2019-04-30T12:31:25.717Z,33.75
2019-04-30T12:32:25.691Z,22.50
2019-04-30T12:33:25.686Z,28.12
2019-04-30T12:34:25.673Z,22.50
2019-04-30T12:35:25.686Z,22.50
2019-04-30T12:36:25.656Z,22.50
2019-04-30T12:37:25.655Z,33.75
2019-04-30T12:38:25.632Z,39.38
2019-04-30T12:39:25.646Z,28.12
2019-04-30T12:40:29.258Z,28.12
2019-04-30T12:41:26.617Z,22.50
2019-04-30T12:42:25.761Z,28.12
2019-04-30T12:43:25.576Z,28.12
2019-04-30T12:44:25.589Z,28.12
2019-04-30T12:45:25.560Z,22.50
2019-04-30T12:46:25.571Z,22.50
2019-04-30T12:47:25.545Z,22.50
2019-04-30T12:48:25.533Z,22.50
2019-04-30T12:49:25.513Z,28.12
2019-04-30T12:50:25.527Z,28.12
2019-04-30T12:51:25.532Z,22.50
2019-04-30T12:52:25.483Z,28.12
2019-04-30T12:53:25.474Z,28.12
2019-04-30T12:54:25.471Z,28.12
2019-04-30T12:55:25.447Z,22.50
2019-04-30T12:56:27.090Z,22.50
2019-04-30T12:57:25.424Z,22.50
2019-04-30T12:58:25.441Z,28.12
2019-04-30T12:59:25.437Z,16.88
2019-04-30T13:00:25.398Z,22.50
2019-04-30T13:01:25.419Z,22.50
2019-04-30T13:02:25.379Z,28.12
2019-04-30T13:03:25.369Z,33.75
2019-04-30T13:04:25.358Z,33.75
2019-04-30T13:05:25.347Z,39.38
2019-04-30T13:06:25.834Z,33.75
2019-04-30T13:07:25.755Z,28.12
2019-04-30T13:08:25.742Z,28.12
2019-04-30T13:09:25.715Z,22.50
2019-04-30T13:10:25.723Z,22.50
2019-04-30T13:11:25.708Z,22.50